Airport details for: LKKV (Czech Republic)

Metar

LKKV 191030Z 31003KT CAVOK 13/11 Q1017

General details

ICAO: LKKV
IATA: KLV
Name (city): Karlovy Vary
Major:
Country: Czech Republic
vACC: Czech vACC
Description:

Web: http://www.vacc-cz.org/airports/lkkv

Scenery links:
FS9 scenery: Download
FSX/P3D scenery: Download
XP scenery:
Elevation: 1989 ft.
Transition altitude: 5000 ft.
MSA: 7000 ft.
Latitude: 50.203056
Longitude: 12.915
LKKV Charts
LKKV Notams
LKKV Online stations

Runways

Number Course Length Elevation Lat Lon ILS ILS freq ILS FAC GP
11 110° 7054ft / 2150 m 1987ft 50.206319 12.903153 - - 3.0°
29 290° 7054ft / 2150 m 1985ft 50.199258 12.928972 111.55 290° 3.0°